createdAt,value
2018-12-04T00:00:28.392Z,99693.33
2018-12-04T00:05:30.474Z,99702.28
2018-12-04T00:10:33.331Z,99708.88
2018-12-04T00:15:35.549Z,99718.92
2018-12-04T00:20:37.628Z,99726.84
2018-12-04T00:25:39.680Z,99745.98
2018-12-04T00:30:41.768Z,99754.05
2018-12-04T00:35:43.802Z,99760.91
2018-12-04T00:40:45.977Z,99775.58
2018-12-04T00:45:48.199Z,99783.67
2018-12-04T00:50:50.402Z,99790.44
2018-12-04T00:55:52.471Z,99802.13
2018-12-04T01:00:54.655Z,99820.97
2018-12-04T01:05:56.954Z,99835.98
2018-12-04T01:10:59.153Z,99844.39
2018-12-04T01:16:01.325Z,99856.89
2018-12-04T01:21:03.527Z,99869.89
2018-12-04T01:26:05.723Z,99868.67
2018-12-04T01:31:07.772Z,99882.86
2018-12-04T01:36:09.913Z,99904.62
2018-12-04T01:41:11.956Z,99913.17
2018-12-04T01:46:15.122Z,99918.31
2018-12-04T01:51:17.176Z,99939.37
2018-12-04T01:56:19.224Z,99949.47
2018-12-04T02:01:21.275Z,99966.74
2018-12-04T02:06:23.316Z,99979.63
2018-12-04T02:11:25.484Z,99996.33
2018-12-04T02:16:28.032Z,100004.14
2018-12-04T02:21:30.188Z,100009.70
2018-12-04T02:26:32.243Z,100022.00
2018-12-04T02:31:34.413Z,100032.23
2018-12-04T02:36:36.604Z,100044.64
2018-12-04T02:41:38.649Z,100054.54
2018-12-04T02:46:40.731Z,100066.07
2018-12-04T02:51:42.796Z,100077.56
2018-12-04T02:56:45.033Z,100077.98
2018-12-04T03:01:47.167Z,100091.50
2018-12-04T03:06:49.241Z,100103.80
2018-12-04T03:11:51.624Z,100112.72
2018-12-04T03:16:53.709Z,100125.69
2018-12-04T03:21:55.769Z,100139.73
2018-12-04T03:26:57.829Z,100149.44
2018-12-04T03:31:59.993Z,100163.36
2018-12-04T03:37:02.164Z,100175.69
2018-12-04T03:42:04.338Z,100184.69
2018-12-04T03:47:06.541Z,100196.47
2018-12-04T03:52:08.620Z,100202.09
2018-12-04T03:57:10.781Z,100217.89
2018-12-04T04:02:12.821Z,100235.91
2018-12-04T04:07:15.121Z,100246.00
2018-12-04T04:12:17.190Z,100260.06
2018-12-04T04:17:19.241Z,100281.44
2018-12-04T04:22:21.317Z,100290.47
2018-12-04T04:27:23.405Z,100290.25
2018-12-04T04:32:25.485Z,100292.61
2018-12-04T04:37:27.565Z,100310.19
2018-12-04T04:42:29.651Z,100313.63
2018-12-04T04:47:31.741Z,100310.64
2018-12-04T04:52:33.835Z,100323.41
2018-12-04T04:57:35.884Z,100338.15
2018-12-04T05:02:38.103Z,100346.00
2018-12-04T05:07:40.265Z,100357.49
2018-12-04T05:12:42.377Z,100371.89
2018-12-04T05:17:44.416Z,100374.97
2018-12-04T05:22:46.587Z,100391.71
2018-12-04T05:27:48.679Z,100392.20
2018-12-04T05:32:50.720Z,100402.60
2018-12-04T05:37:52.761Z,100408.31
2018-12-04T05:42:54.842Z,100420.84
2018-12-04T05:47:56.970Z,100423.27
2018-12-04T05:53:41.994Z,100438.93
2018-12-04T05:58:44.069Z,100448.26
2018-12-04T06:03:46.250Z,100462.02
2018-12-04T06:08:48.349Z,100475.07
2018-12-04T06:13:50.399Z,100490.52
2018-12-04T06:18:52.462Z,100505.06
2018-12-04T06:23:54.524Z,100526.41
2018-12-04T06:28:56.601Z,100537.69
2018-12-04T06:33:58.888Z,100566.48
2018-12-04T06:39:01.064Z,100579.80
2018-12-04T06:44:03.349Z,100575.86
2018-12-04T06:49:05.446Z,100594.50
2018-12-04T06:54:07.734Z,100609.08
2018-12-04T06:59:09.952Z,100615.98
2018-12-04T07:04:12.009Z,100628.09
2018-12-04T07:09:14.085Z,100646.68
2018-12-04T07:14:16.149Z,100650.55
2018-12-04T07:19:18.204Z,100667.55
2018-12-04T07:24:20.282Z,100673.34
2018-12-04T07:29:22.474Z,100689.52
2018-12-04T07:34:24.531Z,100700.13
2018-12-04T07:39:26.607Z,100707.08
2018-12-04T07:44:28.651Z,100718.34
2018-12-04T07:49:30.769Z,100727.33
2018-12-04T07:54:33.127Z,100727.38
2018-12-04T07:59:35.309Z,100723.81
2018-12-04T08:04:37.483Z,100738.83
2018-12-04T08:09:39.794Z,100751.05
2018-12-04T08:14:41.869Z,100764.09
2018-12-04T08:19:43.913Z,100784.28
2018-12-04T08:24:46.001Z,100793.23
2018-12-04T08:29:48.077Z,100802.45
2018-12-04T08:34:50.140Z,100820.17
2018-12-04T08:39:52.426Z,100830.27
2018-12-04T08:44:54.518Z,100834.64
2018-12-04T08:49:56.607Z,100859.97
2018-12-04T08:54:58.662Z,100877.37
2018-12-04T09:00:00.772Z,100879.05
2018-12-04T09:05:03.112Z,100889.72
2018-12-04T09:10:05.827Z,100906.95
2018-12-04T09:15:08.216Z,100917.56
2018-12-04T09:20:10.368Z,100943.94
2018-12-04T09:25:12.563Z,100956.95
2018-12-04T09:30:14.886Z,100965.61
2018-12-04T09:35:17.080Z,100985.41
2018-12-04T09:40:19.173Z,101009.36
2018-12-04T09:45:21.257Z,101004.42
2018-12-04T09:50:23.379Z,101018.84
2018-12-04T09:55:25.480Z,101038.72
2018-12-04T10:00:27.563Z,101034.34
2018-12-04T10:05:29.670Z,101039.58
2018-12-04T10:10:31.752Z,101055.20
2018-12-04T10:15:33.942Z,101059.92
2018-12-04T10:20:36.044Z,101081.20
2018-12-04T10:25:42.737Z,101096.34
2018-12-04T10:30:49.421Z,101081.83
2018-12-04T10:35:51.480Z,101097.84
2018-12-04T10:40:53.570Z,101097.59
2018-12-04T10:45:55.654Z,101103.15
2018-12-04T10:50:57.872Z,101108.63
2018-12-04T10:55:59.973Z,101121.79
2018-12-04T11:01:08.548Z,101121.22
2018-12-04T11:06:10.764Z,101127.63
2018-12-04T11:11:12.868Z,101132.70
2018-12-04T11:16:15.022Z,101148.67
2018-12-04T11:21:17.243Z,101144.66
2018-12-04T11:26:19.321Z,101153.61
2018-12-04T11:31:21.433Z,101164.76
2018-12-04T11:36:23.663Z,101165.40
2018-12-04T11:41:25.761Z,101171.02
2018-12-04T11:46:27.870Z,101172.44
2018-12-04T11:51:29.982Z,101184.25
2018-12-04T11:56:32.284Z,101197.23
2018-12-04T12:01:34.503Z,101203.45
2018-12-04T12:06:36.577Z,101207.30
2018-12-04T12:11:38.703Z,101218.89
2018-12-04T12:16:40.855Z,101229.65
2018-12-04T12:21:43.051Z,101235.33
2018-12-04T12:26:45.158Z,101244.66
2018-12-04T12:31:47.287Z,101269.41
2018-12-04T12:36:49.378Z,101282.09
2018-12-04T12:41:51.592Z,101288.83
2018-12-04T12:46:54.118Z,101287.46
2018-12-04T12:51:56.290Z,101295.14
2018-12-04T12:56:58.376Z,101309.51
2018-12-04T13:02:00.468Z,101315.24
2018-12-04T13:07:02.674Z,101307.72
2018-12-04T13:12:05.026Z,101324.45
2018-12-04T13:17:07.152Z,101331.97
2018-12-04T13:22:09.273Z,101350.25
2018-12-04T13:27:11.466Z,101354.12
2018-12-04T13:32:13.649Z,101371.81
2018-12-04T13:37:15.719Z,101375.09
2018-12-04T13:42:17.813Z,101396.75
2018-12-04T13:47:20.147Z,101386.28
2018-12-04T13:52:22.288Z,101402.34
2018-12-04T13:57:24.397Z,101411.70
2018-12-04T14:02:26.486Z,101421.53
2018-12-04T14:07:28.564Z,101435.15
2018-12-04T14:12:30.711Z,101450.76
2018-12-04T14:17:33.147Z,101460.14
2018-12-04T14:22:35.364Z,101468.16
2018-12-04T14:27:37.479Z,101467.78
2018-12-04T14:32:39.682Z,101480.81
2018-12-04T14:37:41.792Z,101486.20
2018-12-04T14:42:44.109Z,101497.16
2018-12-04T14:47:46.377Z,101503.91
2018-12-04T14:52:48.506Z,101511.25
2018-12-04T14:57:50.774Z,101524.75
2018-12-04T15:02:53.108Z,101524.48
2018-12-04T15:07:55.308Z,101547.19
2018-12-04T15:12:57.610Z,101553.09
2018-12-04T15:17:59.821Z,101552.21
2018-12-04T15:23:02.196Z,101557.27
2018-12-04T15:28:04.312Z,101573.80
2018-12-04T15:33:06.851Z,101589.91
2018-12-04T15:38:09.056Z,101597.75
2018-12-04T15:43:11.243Z,101609.03
2018-12-04T15:48:13.487Z,101618.83
2018-12-04T15:53:15.702Z,101627.37
2018-12-04T15:58:17.848Z,101640.37
2018-12-04T16:03:19.994Z,101650.30
2018-12-04T16:08:22.112Z,101661.95
2018-12-04T16:13:24.259Z,101660.23
2018-12-04T16:18:26.488Z,101664.64
2018-12-04T16:23:29.385Z,101672.44
2018-12-04T16:28:31.514Z,101684.63
2018-12-04T16:33:33.854Z,101677.87
2018-12-04T16:38:35.961Z,101687.59
2018-12-04T16:43:38.193Z,101688.88
2018-12-04T16:48:40.412Z,101686.41
2018-12-04T16:53:42.691Z,101689.05
2018-12-04T16:58:44.816Z,101702.05
2018-12-04T17:03:46.945Z,101704.08
2018-12-04T17:08:49.052Z,101715.17
2018-12-04T17:13:51.200Z,101718.70
2018-12-04T17:18:53.441Z,101727.19
2018-12-04T17:23:55.547Z,101729.28
2018-12-04T17:28:57.645Z,101734.08
2018-12-04T17:33:59.802Z,101738.58
2018-12-04T17:39:02.184Z,101742.25
2018-12-04T17:44:04.458Z,101751.16
2018-12-04T17:49:06.570Z,101753.84
2018-12-04T17:54:08.756Z,101764.16
2018-12-04T17:59:10.995Z,101773.84
2018-12-04T18:04:13.175Z,101771.41
2018-12-04T18:09:15.314Z,101777.22
2018-12-04T18:14:17.440Z,101775.27
2018-12-04T18:19:19.563Z,101773.44
2018-12-04T18:24:21.699Z,101778.03
2018-12-04T18:29:23.816Z,101770.74
2018-12-04T18:34:25.949Z,101789.84
2018-12-04T18:39:28.122Z,101791.06
2018-12-04T18:44:30.255Z,101804.50
2018-12-04T18:49:32.589Z,101810.23
2018-12-04T18:54:34.770Z,101818.31
2018-12-04T18:59:36.915Z,101826.46
2018-12-04T19:04:39.182Z,101838.38
2018-12-04T19:09:42.141Z,101842.66
2018-12-04T19:14:44.914Z,101848.77
2018-12-04T19:19:47.207Z,101849.91
2018-12-04T19:24:49.970Z,101864.40
2018-12-04T19:29:54.741Z,101880.08
2018-12-04T19:35:00.043Z,101888.83
2018-12-04T19:40:07.733Z,101891.30
2018-12-04T19:47:46.064Z,101900.45
2018-12-04T19:52:51.942Z,101895.94
2018-12-04T19:57:58.210Z,101899.42
2018-12-04T20:03:01.812Z,101857.00
2018-12-04T20:08:07.226Z,101924.08
2018-12-04T20:13:11.563Z,101928.72
2018-12-04T20:18:16.210Z,101934.97
2018-12-04T20:23:21.097Z,101950.14
2018-12-04T20:28:26.427Z,101954.28
2018-12-04T20:33:32.454Z,101966.51
2018-12-04T20:38:37.934Z,101972.28
2018-12-04T20:43:43.921Z,101977.14
2018-12-04T20:48:50.018Z,101974.52
2018-12-04T20:53:56.215Z,101986.14
2018-12-04T20:59:02.647Z,101997.80
2018-12-04T21:04:07.702Z,102001.27
2018-12-04T21:09:13.221Z,102013.41
2018-12-04T21:14:17.589Z,102018.80
2018-12-04T21:19:19.810Z,102028.56
2018-12-04T21:24:23.263Z,102021.92
2018-12-04T21:29:31.174Z,102031.28
2018-12-04T21:34:39.087Z,102036.99
2018-12-04T21:39:44.106Z,102038.35
2018-12-04T21:44:52.022Z,102041.09
2018-12-04T21:49:56.340Z,102042.02
2018-12-04T21:54:58.824Z,102051.22
2018-12-04T22:00:01.141Z,102047.11
2018-12-04T22:05:04.019Z,102047.44
2018-12-04T22:10:06.651Z,102050.77
2018-12-04T22:15:08.983Z,102046.41
2018-12-04T22:20:11.147Z,102062.95
2018-12-04T22:25:13.415Z,102069.62
2018-12-04T22:30:15.512Z,102076.20
2018-12-04T22:35:17.771Z,102086.05
2018-12-04T22:40:19.861Z,102081.81
2018-12-04T22:45:25.178Z,102080.59
2018-12-04T22:50:27.390Z,102089.03
2018-12-04T22:55:29.504Z,102090.37
2018-12-04T23:00:39.073Z,102095.80
2018-12-04T23:05:41.383Z,102091.02
2018-12-04T23:10:43.713Z,102097.62
2018-12-04T23:15:45.831Z,102101.77
2018-12-04T23:20:47.957Z,102115.42
2018-12-04T23:25:50.049Z,102108.17
2018-12-04T23:30:52.133Z,102113.05
2018-12-04T23:35:54.230Z,102115.62
2018-12-04T23:40:56.340Z,102114.34
2018-12-04T23:45:58.428Z,102112.71
2018-12-04T23:51:00.606Z,102109.63
2018-12-04T23:56:02.899Z,102114.02
